Time;durP1;ratioP1;P1;durP2;ratioP2;P2;SDS_P1;SDS_P2;PMS_P1;PMS_P2;Temp;Humidity;BMP_temperature;BMP_pressure;BME280_temperature;BME280_humidity;BME280_pressure;Samples;Min_cycle;Max_cycle;Signal;HPM_P1;HPM_P2
2022/03/19 00:00:45;;;;;;;9.40;4.23;;;;;;;;;;5074097;28;20692;-59
2022/03/19 00:03:12;;;;;;;10.83;4.27;;;;;;;;;;5073968;28;20203;-59
2022/03/19 00:05:40;;;;;;;12.77;5.00;;;;;;;;;;5073805;28;20478;-60
2022/03/19 00:08:06;;;;;;;10.93;4.00;;;;;;;;;;5073886;28;20838;-59
2022/03/19 00:10:32;;;;;;;9.57;3.70;;;;;;;;;;5073769;28;20434;-59
2022/03/19 00:12:59;;;;;;;8.60;4.10;;;;;;;;;;5073728;28;20430;-59
2022/03/19 00:15:25;;;;;;;10.27;4.67;;;;;;;;;;5073636;28;20418;-59
2022/03/19 00:17:54;;;;;;;7.67;4.00;;;;;;;;;;5073603;28;20960;-59
2022/03/19 00:20:20;;;;;;;10.37;4.17;;;;;;;;;;5073705;28;20517;-59
2022/03/19 00:22:47;;;;;;;11.33;4.13;;;;;;;;;;5071851;28;20444;-59
2022/03/19 00:25:13;;;;;;;9.50;3.83;;;;;;;;;;5073325;28;21018;-58
2022/03/19 00:27:42;;;;;;;9.67;4.17;;;;;;;;;;5073347;28;20845;-58
2022/03/19 00:30:09;;;;;;;7.40;4.07;;;;;;;;;;5073500;28;20437;-59
2022/03/19 00:32:35;;;;;;;10.20;4.63;;;;;;;;;;5073355;28;20470;-59
2022/03/19 00:35:01;;;;;;;11.37;4.60;;;;;;;;;;5073412;28;20457;-59
2022/03/19 00:37:27;;;;;;;6.80;3.47;;;;;;;;;;5073454;28;20952;-59
2022/03/19 00:39:55;;;;;;;10.70;4.60;;;;;;;;;;5073068;28;20445;-58
2022/03/19 00:42:21;;;;;;;11.37;4.60;;;;;;;;;;5068009;28;20441;-59
2022/03/19 00:44:47;;;;;;;10.10;3.63;;;;;;;;;;5071070;28;20474;-58
2022/03/19 00:47:13;;;;;;;9.70;4.13;;;;;;;;;;5073335;28;20200;-58
2022/03/19 00:49:40;;;;;;;9.17;4.00;;;;;;;;;;5072866;28;20438;-58
2022/03/19 00:52:06;;;;;;;9.47;4.17;;;;;;;;;;5073000;28;20437;-58
2022/03/19 00:54:32;;;;;;;9.73;3.80;;;;;;;;;;5072666;28;20437;-58
2022/03/19 00:56:59;;;;;;;7.70;4.47;;;;;;;;;;5073376;28;20450;-58
2022/03/19 00:59:26;;;;;;;7.57;3.93;;;;;;;;;;5072934;28;20469;-58
2022/03/19 01:01:51;;;;;;;11.80;4.83;;;;;;;;;;5073006;28;20437;-58
2022/03/19 01:04:18;;;;;;;12.93;4.47;;;;;;;;;;5072697;28;20438;-58
2022/03/19 01:06:43;;;;;;;10.73;4.00;;;;;;;;;;5072918;28;20661;-58
2022/03/19 01:09:09;;;;;;;10.10;3.90;;;;;;;;;;5072778;28;20440;-59
2022/03/19 01:11:35;;;;;;;10.40;4.47;;;;;;;;;;5072727;28;20601;-57
2022/03/19 01:14:03;;;;;;;18.83;4.77;;;;;;;;;;5072947;28;20396;-59
2022/03/19 01:16:29;;;;;;;7.20;3.80;;;;;;;;;;5072524;28;20694;-58
2022/03/19 01:18:55;;;;;;;8.97;3.73;;;;;;;;;;5072325;28;20430;-58
2022/03/19 01:21:21;;;;;;;7.77;4.20;;;;;;;;;;5072727;28;20510;-58
2022/03/19 01:23:47;;;;;;;11.13;4.00;;;;;;;;;;5072241;28;20243;-58
2022/03/19 01:26:13;;;;;;;10.27;4.43;;;;;;;;;;5072363;28;20811;-58
2022/03/19 01:28:39;;;;;;;9.50;3.97;;;;;;;;;;5072337;28;20462;-58
2022/03/19 01:31:06;;;;;;;10.57;3.80;;;;;;;;;;5072558;28;20508;-58
2022/03/19 01:33:32;;;;;;;7.83;4.10;;;;;;;;;;5072377;28;20461;-58
2022/03/19 01:35:58;;;;;;;13.60;4.80;;;;;;;;;;5072474;28;20442;-58
2022/03/19 01:38:24;;;;;;;10.77;4.13;;;;;;;;;;5072227;28;20200;-58
2022/03/19 01:40:50;;;;;;;10.70;4.43;;;;;;;;;;5072083;28;20210;-58
2022/03/19 01:43:17;;;;;;;13.00;4.27;;;;;;;;;;5072421;28;20492;-58
2022/03/19 01:45:43;;;;;;;11.47;4.47;;;;;;;;;;5072023;28;20975;-58
2022/03/19 01:48:10;;;;;;;14.30;4.20;;;;;;;;;;5072279;28;20453;-58
2022/03/19 01:50:36;;;;;;;9.43;4.37;;;;;;;;;;5072245;28;20442;-58
2022/03/19 01:53:02;;;;;;;10.50;4.40;;;;;;;;;;5072273;28;20437;-58
2022/03/19 01:55:28;;;;;;;10.33;5.00;;;;;;;;;;5072257;28;20199;-58
2022/03/19 01:57:55;;;;;;;12.30;4.73;;;;;;;;;;5072091;28;20838;-58
2022/03/19 02:00:22;;;;;;;11.20;4.70;;;;;;;;;;5072195;28;20438;-58
2022/03/19 02:02:49;;;;;;;10.13;4.60;;;;;;;;;;5072101;28;20522;-58
2022/03/19 02:05:17;;;;;;;6.27;3.83;;;;;;;;;;5071969;28;20513;-58
2022/03/19 02:07:43;;;;;;;7.10;4.10;;;;;;;;;;5072161;28;20463;-58
2022/03/19 02:10:10;;;;;;;7.43;3.73;;;;;;;;;;5072038;28;20520;-58
2022/03/19 02:12:36;;;;;;;8.67;4.57;;;;;;;;;;5071901;28;20515;-58
2022/03/19 02:15:02;;;;;;;9.53;4.37;;;;;;;;;;5070411;28;20440;-58
2022/03/19 02:17:28;;;;;;;9.60;4.20;;;;;;;;;;5071939;28;20442;-58
2022/03/19 02:19:55;;;;;;;10.03;4.40;;;;;;;;;;5072057;28;20433;-58
2022/03/19 02:22:23;;;;;;;10.57;4.40;;;;;;;;;;5071901;28;20219;-58
2022/03/19 02:27:36;;;;;;;11.73;4.57;;;;;;;;;;5071802;28;20426;-58
2022/03/19 02:30:02;;;;;;;7.43;4.57;;;;;;;;;;5072383;28;20441;-58
2022/03/19 02:32:28;;;;;;;9.20;3.60;;;;;;;;;;5076161;28;20444;-58
2022/03/19 02:34:55;;;;;;;9.00;4.37;;;;;;;;;;5075815;28;20525;-57
2022/03/19 02:37:21;;;;;;;12.00;4.43;;;;;;;;;;5075963;28;20442;-58
2022/03/19 02:39:47;;;;;;;12.20;5.17;;;;;;;;;;5075700;28;20965;-58
2022/03/19 02:42:16;;;;;;;7.23;4.23;;;;;;;;;;5075843;28;20441;-58
2022/03/19 02:44:42;;;;;;;12.27;4.87;;;;;;;;;;5075690;28;20466;-57
2022/03/19 02:47:08;;;;;;;11.23;5.23;;;;;;;;;;5075807;28;21210;-58
2022/03/19 02:49:35;;;;;;;15.97;4.93;;;;;;;;;;5075571;28;20203;-58
2022/03/19 02:52:01;;;;;;;7.07;4.63;;;;;;;;;;5075745;28;20484;-58
2022/03/19 02:54:28;;;;;;;12.83;4.93;;;;;;;;;;5075539;28;20817;-58
2022/03/19 02:56:55;;;;;;;7.30;3.90;;;;;;;;;;5075529;28;20445;-58
2022/03/19 02:59:23;;;;;;;11.60;4.70;;;;;;;;;;5075558;28;20434;-58
2022/03/19 03:01:51;;;;;;;10.03;4.33;;;;;;;;;;5075541;28;20456;-59
2022/03/19 03:04:17;;;;;;;10.97;4.70;;;;;;;;;;5075426;28;20542;-59
2022/03/19 03:06:44;;;;;;;9.70;4.47;;;;;;;;;;5074997;28;20535;-59
2022/03/19 03:09:11;;;;;;;13.90;4.40;;;;;;;;;;5075105;28;20442;-58
2022/03/19 03:11:37;;;;;;;12.43;3.87;;;;;;;;;;5075137;28;20434;-58
2022/03/19 03:14:04;;;;;;;10.87;4.40;;;;;;;;;;5075182;28;20433;-58
2022/03/19 03:16:31;;;;;;;9.03;4.30;;;;;;;;;;5074905;28;20442;-58
2022/03/19 03:18:58;;;;;;;9.77;3.77;;;;;;;;;;5075174;28;20942;-58
2022/03/19 03:21:24;;;;;;;10.97;3.57;;;;;;;;;;5074891;28;20426;-58
2022/03/19 03:23:51;;;;;;;8.03;4.00;;;;;;;;;;5074370;28;20481;-58
2022/03/19 03:26:17;;;;;;;7.57;4.47;;;;;;;;;;5073744;28;20469;-59
2022/03/19 03:28:43;;;;;;;9.47;4.17;;;;;;;;;;5073696;28;20525;-58
2022/03/19 03:31:09;;;;;;;9.37;3.77;;;;;;;;;;5073755;28;20199;-58
2022/03/19 03:33:36;;;;;;;10.83;4.60;;;;;;;;;;5073714;28;20532;-59
2022/03/19 03:36:02;;;;;;;10.47;4.67;;;;;;;;;;5073746;28;20279;-58
2022/03/19 03:38:28;;;;;;;9.77;4.80;;;;;;;;;;5073781;28;20434;-58
2022/03/19 03:40:54;;;;;;;9.83;4.43;;;;;;;;;;5073122;28;20453;-58
2022/03/19 03:43:20;;;;;;;7.23;4.50;;;;;;;;;;5073489;28;20430;-58
2022/03/19 03:45:46;;;;;;;12.67;4.67;;;;;;;;;;5073325;28;20255;-59
2022/03/19 03:48:12;;;;;;;6.87;3.70;;;;;;;;;;5073534;28;20199;-58
2022/03/19 03:50:40;;;;;;;10.90;4.00;;;;;;;;;;5073177;28;20955;-58
2022/03/19 03:53:06;;;;;;;13.20;4.77;;;;;;;;;;5073476;28;20269;-58
2022/03/19 03:55:33;;;;;;;10.97;4.03;;;;;;;;;;5073313;28;20487;-58
2022/03/19 03:57:59;;;;;;;9.23;4.47;;;;;;;;;;5073287;28;20928;-58
2022/03/19 04:00:26;;;;;;;10.60;4.53;;;;;;;;;;5073237;28;20442;-58
2022/03/19 04:02:52;;;;;;;8.33;4.00;;;;;;;;;;5073081;28;20445;-58
2022/03/19 04:05:18;;;;;;;11.77;5.37;;;;;;;;;;5073181;28;20469;-58
2022/03/19 04:07:45;;;;;;;17.07;5.13;;;;;;;;;;5073183;28;20437;-58
2022/03/19 04:10:11;;;;;;;8.93;4.13;;;;;;;;;;5073251;28;20676;-58
2022/03/19 04:12:37;;;;;;;9.87;4.63;;;;;;;;;;5072946;28;20532;-58
2022/03/19 04:15:04;;;;;;;12.77;4.57;;;;;;;;;;5073008;28;20520;-58
2022/03/19 04:17:30;;;;;;;10.80;4.10;;;;;;;;;;5072883;28;20504;-59
2022/03/19 04:19:56;;;;;;;10.90;4.87;;;;;;;;;;5072870;28;20457;-58
2022/03/19 04:22:22;;;;;;;9.87;4.67;;;;;;;;;;5072882;28;20223;-58
2022/03/19 04:24:49;;;;;;;11.37;5.00;;;;;;;;;;5037437;28;1016165;-59
2022/03/19 04:27:15;;;;;;;10.67;4.30;;;;;;;;;;5073925;28;20274;-58
2022/03/19 04:29:41;;;;;;;14.07;4.57;;;;;;;;;;5073522;28;20528;-58
2022/03/19 04:32:08;;;;;;;12.07;5.37;;;;;;;;;;5073738;28;20191;-58
2022/03/19 04:34:34;;;;;;;11.67;5.57;;;;;;;;;;5071757;28;20479;-59
2022/03/19 04:37:00;;;;;;;15.43;5.83;;;;;;;;;;5073623;28;20430;-58
2022/03/19 04:39:26;;;;;;;15.80;6.27;;;;;;;;;;5073623;28;20502;-58
2022/03/19 04:41:54;;;;;;;9.07;4.60;;;;;;;;;;5073408;28;20199;-58
2022/03/19 04:44:20;;;;;;;13.70;5.37;;;;;;;;;;5073507;28;20457;-58
2022/03/19 04:46:46;;;;;;;10.83;4.70;;;;;;;;;;5073450;28;20812;-58
2022/03/19 04:49:12;;;;;;;8.30;5.03;;;;;;;;;;5073552;28;21023;-58
2022/03/19 04:51:38;;;;;;;13.33;5.37;;;;;;;;;;5073288;28;20508;-58
2022/03/19 04:54:05;;;;;;;13.87;4.90;;;;;;;;;;5072486;28;20286;-58
2022/03/19 04:56:31;;;;;;;17.17;5.27;;;;;;;;;;5073248;28;20433;-58
2022/03/19 04:58:59;;;;;;;15.40;4.77;;;;;;;;;;5073559;28;20463;-58
2022/03/19 05:01:26;;;;;;;11.90;5.37;;;;;;;;;;5073063;28;20488;-58
2022/03/19 05:03:52;;;;;;;13.57;4.80;;;;;;;;;;5073155;28;20476;-58
2022/03/19 05:06:18;;;;;;;12.10;4.83;;;;;;;;;;5072946;28;20485;-58
2022/03/19 05:08:44;;;;;;;11.23;5.53;;;;;;;;;;5072986;28;20559;-58
2022/03/19 05:11:14;;;;;;;10.83;5.30;;;;;;;;;;5073088;28;20450;-58
2022/03/19 05:13:40;;;;;;;12.20;4.83;;;;;;;;;;5072756;28;20195;-58
2022/03/19 05:16:07;;;;;;;12.10;5.87;;;;;;;;;;5072869;28;20488;-58
2022/03/19 05:18:33;;;;;;;15.57;5.17;;;;;;;;;;5072818;28;20532;-58
2022/03/19 05:20:59;;;;;;;12.00;5.23;;;;;;;;;;5072792;28;20434;-58
2022/03/19 05:23:25;;;;;;;12.60;5.50;;;;;;;;;;5072270;28;20865;-58
2022/03/19 05:25:52;;;;;;;14.33;5.50;;;;;;;;;;5072386;28;20976;-58
2022/03/19 05:28:18;;;;;;;13.00;5.87;;;;;;;;;;5072034;28;21006;-58
2022/03/19 05:30:44;;;;;;;13.10;5.17;;;;;;;;;;5072638;28;20535;-62
2022/03/19 05:33:12;;;;;;;11.13;5.00;;;;;;;;;;5072573;28;20429;-58
2022/03/19 05:35:38;;;;;;;12.03;5.43;;;;;;;;;;5072505;28;20434;-59
2022/03/19 05:38:05;;;;;;;11.43;5.10;;;;;;;;;;5072432;28;20434;-58
2022/03/19 05:40:31;;;;;;;12.10;4.93;;;;;;;;;;5072392;28;20536;-59
2022/03/19 05:42:57;;;;;;;13.53;5.50;;;;;;;;;;5072301;28;20999;-58
2022/03/19 05:45:23;;;;;;;10.57;5.17;;;;;;;;;;5072219;28;20528;-58
2022/03/19 05:47:50;;;;;;;9.13;5.67;;;;;;;;;;5072002;28;20438;-59
2022/03/19 05:50:17;;;;;;;15.40;5.80;;;;;;;;;;5072469;28;20517;-58
2022/03/19 05:52:46;;;;;;;14.30;6.40;;;;;;;;;;5072302;28;20441;-58
2022/03/19 05:55:13;;;;;;;12.63;5.50;;;;;;;;;;5072101;28;20960;-58
2022/03/19 05:57:40;;;;;;;12.13;5.73;;;;;;;;;;5072182;28;20484;-58
2022/03/19 06:00:07;;;;;;;17.77;5.87;;;;;;;;;;5072081;28;20438;-58
2022/03/19 06:02:38;;;;;;;15.27;5.80;;;;;;;;;;5071817;28;20449;-59
2022/03/19 06:05:04;;;;;;;12.03;5.43;;;;;;;;;;5071846;28;20477;-58
2022/03/19 06:07:31;;;;;;;13.80;5.63;;;;;;;;;;5071867;28;20444;-58
2022/03/19 06:09:57;;;;;;;14.80;5.30;;;;;;;;;;5071741;28;20475;-58
2022/03/19 06:12:23;;;;;;;12.43;5.80;;;;;;;;;;5071900;28;20870;-58
2022/03/19 06:14:53;;;;;;;10.70;5.47;;;;;;;;;;5071791;28;20889;-58
2022/03/19 06:17:19;;;;;;;11.67;5.63;;;;;;;;;;5071862;28;20211;-58
2022/03/19 06:19:45;;;;;;;11.37;5.07;;;;;;;;;;5071929;28;20441;-58
2022/03/19 06:22:11;;;;;;;16.13;5.70;;;;;;;;;;5071889;28;20446;-58
2022/03/19 06:24:38;;;;;;;14.13;5.50;;;;;;;;;;5071234;28;20253;-58
2022/03/19 06:27:04;;;;;;;11.87;6.07;;;;;;;;;;5071748;28;20866;-58
2022/03/19 06:29:30;;;;;;;12.17;5.37;;;;;;;;;;5071937;28;20464;-58
2022/03/19 06:31:56;;;;;;;13.30;6.10;;;;;;;;;;5071734;28;20437;-58
2022/03/19 06:34:22;;;;;;;15.23;6.43;;;;;;;;;;5071870;28;20526;-58
2022/03/19 06:39:33;;;;;;;10.73;5.00;;;;;;;;;;5071744;28;20237;-57
2022/03/19 06:42:00;;;;;;;13.70;6.20;;;;;;;;;;5071770;28;20798;-57
2022/03/19 06:44:27;;;;;;;9.87;5.43;;;;;;;;;;5071720;28;20257;-57
2022/03/19 06:46:53;;;;;;;12.80;5.77;;;;;;;;;;5071871;28;20911;-56
2022/03/19 06:49:19;;;;;;;8.13;5.47;;;;;;;;;;5071760;28;20959;-57
2022/03/19 06:51:45;;;;;;;15.73;5.87;;;;;;;;;;5071747;28;20465;-57
2022/03/19 06:54:10;;;;;;;12.60;5.67;;;;;;;;;;5071617;28;20560;-57
2022/03/19 06:56:36;;;;;;;11.67;5.27;;;;;;;;;;5071476;28;20200;-57
2022/03/19 06:59:04;;;;;;;9.03;4.73;;;;;;;;;;5071630;28;20202;-57
2022/03/19 07:01:30;;;;;;;9.33;5.20;;;;;;;;;;5071631;28;20207;-57
2022/03/19 07:03:56;;;;;;;10.27;5.30;;;;;;;;;;5071227;28;20441;-57
2022/03/19 07:06:22;;;;;;;9.67;5.30;;;;;;;;;;5071334;28;20482;-57
2022/03/19 07:08:50;;;;;;;15.63;5.07;;;;;;;;;;5071385;28;20203;-58
2022/03/19 07:11:16;;;;;;;9.87;4.27;;;;;;;;;;5071574;28;20204;-57
2022/03/19 07:13:42;;;;;;;13.17;5.40;;;;;;;;;;5071334;28;21171;-57
2022/03/19 07:16:09;;;;;;;14.93;5.30;;;;;;;;;;5071947;28;20464;-57
2022/03/19 07:18:35;;;;;;;10.63;5.40;;;;;;;;;;5075050;28;20434;-58
2022/03/19 07:21:01;;;;;;;9.13;5.20;;;;;;;;;;5075026;28;20452;-57
2022/03/19 07:23:27;;;;;;;12.90;5.10;;;;;;;;;;5074868;28;20525;-57
2022/03/19 07:25:54;;;;;;;10.10;5.10;;;;;;;;;;5074928;28;20946;-58
2022/03/19 07:28:21;;;;;;;9.80;5.13;;;;;;;;;;5075085;28;20426;-58
2022/03/19 07:30:48;;;;;;;9.83;4.97;;;;;;;;;;5074816;28;20442;-57
2022/03/19 07:33:15;;;;;;;12.80;4.97;;;;;;;;;;5074917;28;20464;-57
2022/03/19 07:35:42;;;;;;;12.17;4.47;;;;;;;;;;5074718;28;20199;-57
2022/03/19 07:38:09;;;;;;;14.83;5.10;;;;;;;;;;5074641;28;20856;-58
2022/03/19 07:43:20;;;;;;;9.23;4.30;;;;;;;;;;5074718;28;20289;-58
2022/03/19 07:45:46;;;;;;;11.90;4.93;;;;;;;;;;5074489;28;20987;-58
2022/03/19 07:48:12;;;;;;;11.13;4.40;;;;;;;;;;5074541;28;20261;-58
2022/03/19 07:50:39;;;;;;;10.40;4.03;;;;;;;;;;5074374;28;20812;-58
2022/03/19 07:53:06;;;;;;;7.70;3.60;;;;;;;;;;5074256;28;20199;-58
2022/03/19 07:55:32;;;;;;;15.60;4.87;;;;;;;;;;5074432;28;20685;-58
2022/03/19 07:57:58;;;;;;;8.13;3.37;;;;;;;;;;5074302;28;20199;-58
2022/03/19 08:00:24;;;;;;;7.13;3.17;;;;;;;;;;5074449;28;20199;-58
2022/03/19 08:02:51;;;;;;;10.27;3.43;;;;;;;;;;5074175;28;20650;-61
2022/03/19 08:05:17;;;;;;;11.60;3.50;;;;;;;;;;5074318;28;20318;-58
2022/03/19 08:07:44;;;;;;;6.80;3.40;;;;;;;;;;5074179;28;20218;-59
2022/03/19 08:10:11;;;;;;;10.63;3.70;;;;;;;;;;5074086;28;20211;-58
2022/03/19 08:12:38;;;;;;;15.87;4.10;;;;;;;;;;5073888;28;20299;-58
2022/03/19 08:15:04;;;;;;;6.40;3.33;;;;;;;;;;5074075;28;20253;-57
2022/03/19 08:17:30;;;;;;;9.00;3.50;;;;;;;;;;5074050;28;20206;-58
2022/03/19 08:19:57;;;;;;;7.73;3.60;;;;;;;;;;5073808;28;20290;-56
2022/03/19 08:22:23;;;;;;;6.43;3.10;;;;;;;;;;5073825;28;20249;-57
2022/03/19 08:24:51;;;;;;;8.50;3.37;;;;;;;;;;5073675;28;20281;-57
2022/03/19 08:27:17;;;;;;;9.80;4.03;;;;;;;;;;5073264;28;20231;-58
2022/03/19 08:29:43;;;;;;;13.00;3.57;;;;;;;;;;5071377;28;20195;-59
2022/03/19 08:32:10;;;;;;;7.63;3.60;;;;;;;;;;5070086;28;20195;-59
2022/03/19 08:34:36;;;;;;;7.00;3.33;;;;;;;;;;5073521;28;20200;-59
2022/03/19 08:37:02;;;;;;;6.77;2.90;;;;;;;;;;5071587;28;20238;-58
2022/03/19 08:42:14;;;;;;;7.70;3.60;;;;;;;;;;5073576;28;20187;-57
2022/03/19 08:44:40;;;;;;;7.10;3.50;;;;;;;;;;5073245;28;20741;-57
2022/03/19 08:47:07;;;;;;;7.83;3.47;;;;;;;;;;5073414;28;20326;-57
2022/03/19 08:49:32;;;;;;;8.97;3.30;;;;;;;;;;5073404;28;20231;-57
2022/03/19 08:51:58;;;;;;;9.00;3.50;;;;;;;;;;5073207;28;20241;-58
2022/03/19 08:54:25;;;;;;;7.27;3.30;;;;;;;;;;5073314;28;20306;-57
2022/03/19 08:56:51;;;;;;;7.60;3.10;;;;;;;;;;5073047;28;20196;-57
2022/03/19 08:59:22;;;;;;;8.77;2.90;;;;;;;;;;5073142;28;20215;-58
2022/03/19 09:01:49;;;;;;;5.37;3.10;;;;;;;;;;5073044;28;20215;-58
2022/03/19 09:04:15;;;;;;;7.90;2.90;;;;;;;;;;5072934;28;20204;-57
2022/03/19 09:06:41;;;;;;;7.73;3.67;;;;;;;;;;5072838;28;20219;-57
2022/03/19 09:09:07;;;;;;;10.30;3.80;;;;;;;;;;5072880;28;20290;-57
2022/03/19 09:11:34;;;;;;;6.83;2.87;;;;;;;;;;5072774;28;20238;-57
2022/03/19 09:14:02;;;;;;;8.57;3.00;;;;;;;;;;5072685;28;20662;-56
2022/03/19 09:16:30;;;;;;;6.70;2.70;;;;;;;;;;5072793;28;20225;-57
2022/03/19 09:18:56;;;;;;;5.93;2.97;;;;;;;;;;5071290;28;20215;-58
2022/03/19 09:21:22;;;;;;;7.47;3.00;;;;;;;;;;5072639;28;20219;-59
2022/03/19 09:23:49;;;;;;;6.27;3.10;;;;;;;;;;5072304;28;20696;-57
2022/03/19 09:26:15;;;;;;;5.17;2.50;;;;;;;;;;5070741;28;20237;-57
2022/03/19 09:28:41;;;;;;;7.63;2.47;;;;;;;;;;5072273;28;20195;-56
2022/03/19 09:31:07;;;;;;;6.50;2.70;;;;;;;;;;5072250;28;20658;-58
2022/03/19 09:33:35;;;;;;;4.10;2.47;;;;;;;;;;5072080;28;20658;-58
2022/03/19 09:36:01;;;;;;;5.60;2.00;;;;;;;;;;5072048;28;20203;-57
2022/03/19 09:38:27;;;;;;;5.63;2.50;;;;;;;;;;5072110;28;20215;-58
2022/03/19 09:40:53;;;;;;;6.00;2.20;;;;;;;;;;5071546;28;20645;-57
2022/03/19 09:43:21;;;;;;;4.50;2.20;;;;;;;;;;5071970;28;20206;-58
2022/03/19 09:45:47;;;;;;;4.60;2.30;;;;;;;;;;5071797;28;20212;-58
2022/03/19 09:48:13;;;;;;;6.23;2.20;;;;;;;;;;5072088;28;20203;-58
2022/03/19 09:50:41;;;;;;;3.47;2.07;;;;;;;;;;5071628;28;20204;-58
2022/03/19 09:53:09;;;;;;;7.13;2.40;;;;;;;;;;5071918;28;20286;-58
2022/03/19 09:55:37;;;;;;;4.13;2.27;;;;;;;;;;5071737;28;20655;-58
2022/03/19 09:58:04;;;;;;;5.40;2.27;;;;;;;;;;5071666;28;20206;-58
2022/03/19 10:00:30;;;;;;;4.63;2.20;;;;;;;;;;5071914;28;20223;-57
2022/03/19 10:02:56;;;;;;;5.27;2.20;;;;;;;;;;5071656;28;20222;-57
2022/03/19 10:08:43;;;;;;;4.67;2.00;;;;;;;;;;5029357;28;20213;-57
2022/03/19 10:11:10;;;;;;;4.93;2.27;;;;;;;;;;5067984;28;20207;-57
2022/03/19 10:13:37;;;;;;;4.83;2.20;;;;;;;;;;5071564;28;20406;-58
2022/03/19 10:16:03;;;;;;;4.73;1.80;;;;;;;;;;5071454;28;20187;-58
2022/03/19 10:18:30;;;;;;;4.53;2.13;;;;;;;;;;5071567;28;20205;-57
2022/03/19 10:20:56;;;;;;;4.00;1.97;;;;;;;;;;5071511;28;20279;-57
2022/03/19 10:23:33;;;;;;;6.47;2.33;;;;;;;;;;5071431;28;20220;-57
2022/03/19 10:26:00;;;;;;;4.10;2.40;;;;;;;;;;5071289;28;20262;-58
2022/03/19 10:28:29;;;;;;;4.83;2.27;;;;;;;;;;5071911;28;20193;-59
2022/03/19 10:30:55;;;;;;;7.47;2.40;;;;;;;;;;5071660;28;20196;-58
2022/03/19 10:33:24;;;;;;;6.40;2.30;;;;;;;;;;5071806;28;20212;-58
2022/03/19 10:35:50;;;;;;;4.67;2.13;;;;;;;;;;5071645;28;20668;-58
2022/03/19 10:38:19;;;;;;;7.60;2.00;;;;;;;;;;5071917;28;20289;-58
2022/03/19 10:40:48;;;;;;;3.37;1.87;;;;;;;;;;5071862;28;20220;-59
2022/03/19 10:43:17;;;;;;;5.10;2.13;;;;;;;;;;5071959;28;20199;-58
2022/03/19 10:45:44;;;;;;;4.50;2.20;;;;;;;;;;5071470;28;20251;-59
2022/03/19 10:48:13;;;;;;;5.00;2.43;;;;;;;;;;5071455;28;20685;-59
2022/03/19 10:50:40;;;;;;;5.57;2.10;;;;;;;;;;5071123;28;20577;-58
2022/03/19 10:53:06;;;;;;;3.20;1.80;;;;;;;;;;5074982;28;20199;-57
2022/03/19 10:55:33;;;;;;;6.30;2.20;;;;;;;;;;5075473;28;20194;-57
2022/03/19 10:58:00;;;;;;;6.80;2.10;;;;;;;;;;5074182;28;20559;-58
2022/03/19 11:00:26;;;;;;;5.97;2.20;;;;;;;;;;5075529;28;20617;-59
2022/03/19 11:02:54;;;;;;;7.40;2.07;;;;;;;;;;5075282;28;20225;-58
2022/03/19 11:05:21;;;;;;;5.00;1.93;;;;;;;;;;5075011;28;20199;-58
2022/03/19 11:07:48;;;;;;;5.67;2.17;;;;;;;;;;5075117;28;20274;-58
2022/03/19 11:10:15;;;;;;;3.93;1.80;;;;;;;;;;5075331;28;20194;-59
2022/03/19 11:12:42;;;;;;;4.33;1.97;;;;;;;;;;5075255;28;20196;-57
2022/03/19 11:15:11;;;;;;;2.43;1.40;;;;;;;;;;5075145;28;20214;-57
2022/03/19 11:17:39;;;;;;;4.27;1.77;;;;;;;;;;5075065;28;20198;-58
2022/03/19 11:20:06;;;;;;;4.70;1.70;;;;;;;;;;5074923;28;20207;-57
2022/03/19 11:22:39;;;;;;;3.47;1.90;;;;;;;;;;5074833;28;20208;-58
2022/03/19 11:25:07;;;;;;;2.43;1.50;;;;;;;;;;5069302;28;20299;-58
2022/03/19 11:27:36;;;;;;;4.27;2.10;;;;;;;;;;5072251;28;20274;-57
2022/03/19 11:30:04;;;;;;;3.33;1.50;;;;;;;;;;5074611;28;20195;-60
2022/03/19 11:32:31;;;;;;;2.80;1.73;;;;;;;;;;5074902;28;20200;-58
2022/03/19 11:34:59;;;;;;;4.43;2.00;;;;;;;;;;5074697;28;20207;-58
2022/03/19 11:37:26;;;;;;;3.33;1.97;;;;;;;;;;5074364;28;20202;-58
2022/03/19 11:40:03;;;;;;;3.13;1.50;;;;;;;;;;5074185;28;20203;-58
2022/03/19 11:42:29;;;;;;;6.03;2.20;;;;;;;;;;5073867;28;20222;-58
2022/03/19 11:44:55;;;;;;;2.87;1.53;;;;;;;;;;5074109;28;20255;-58
2022/03/19 11:47:31;;;;;;;3.10;1.47;;;;;;;;;;5074426;28;20322;-58
2022/03/19 11:50:02;;;;;;;6.57;1.80;;;;;;;;;;5074173;28;20595;-58
2022/03/19 11:52:47;;;;;;;4.07;1.73;;;;;;;;;;5074338;28;20261;-58
2022/03/19 11:55:17;;;;;;;3.67;1.90;;;;;;;;;;5074206;28;20186;-57
2022/03/19 11:57:50;;;;;;;3.07;1.77;;;;;;;;;;5074076;28;20241;-57
2022/03/19 12:00:16;;;;;;;3.03;1.63;;;;;;;;;;5074097;28;20224;-58
2022/03/19 12:03:02;;;;;;;5.47;1.90;;;;;;;;;;5073674;28;20214;-58
2022/03/19 12:05:30;;;;;;;2.70;1.70;;;;;;;;;;5073926;28;20213;-58
2022/03/19 12:07:59;;;;;;;3.13;1.57;;;;;;;;;;5073663;28;20216;-57
2022/03/19 12:10:25;;;;;;;2.93;1.77;;;;;;;;;;5073948;28;20222;-57
2022/03/19 12:12:52;;;;;;;2.97;1.63;;;;;;;;;;5073758;28;20704;-57
2022/03/19 12:15:36;;;;;;;2.83;1.60;;;;;;;;;;5073687;28;20230;-57
2022/03/19 12:18:17;;;;;;;4.40;2.37;;;;;;;;;;5073700;28;20199;-58
2022/03/19 12:20:45;;;;;;;2.50;1.57;;;;;;;;;;5073349;28;20204;-57
2022/03/19 12:23:11;;;;;;;3.17;1.90;;;;;;;;;;5073569;28;20210;-57
2022/03/19 12:25:40;;;;;;;2.40;1.77;;;;;;;;;;5073424;28;20221;-58
2022/03/19 12:28:06;;;;;;;3.87;1.70;;;;;;;;;;5073382;28;20237;-58
2022/03/19 12:30:32;;;;;;;3.10;1.53;;;;;;;;;;5073736;28;20247;-58
2022/03/19 12:32:59;;;;;;;2.83;1.60;;;;;;;;;;5073933;28;20190;-59
2022/03/19 12:35:26;;;;;;;2.87;1.50;;;;;;;;;;5073721;28;20207;-60
2022/03/19 12:37:54;;;;;;;3.33;1.63;;;;;;;;;;5073387;28;20207;-58
2022/03/19 12:40:21;;;;;;;2.63;1.40;;;;;;;;;;5073378;28;20226;-58
2022/03/19 12:42:54;;;;;;;4.93;1.70;;;;;;;;;;5073355;28;20277;-58
2022/03/19 12:45:28;;;;;;;3.83;1.63;;;;;;;;;;5073399;28;20226;-58
2022/03/19 12:47:53;;;;;;;2.50;1.50;;;;;;;;;;5073327;28;20299;-58
2022/03/19 12:50:20;;;;;;;4.13;1.70;;;;;;;;;;5071366;28;20236;-58
2022/03/19 12:52:46;;;;;;;2.87;1.73;;;;;;;;;;5072949;28;20206;-58
2022/03/19 12:55:20;;;;;;;3.07;1.70;;;;;;;;;;5073008;28;20203;-58
2022/03/19 12:57:53;;;;;;;6.23;1.40;;;;;;;;;;5072873;28;20275;-58
2022/03/19 13:00:19;;;;;;;3.10;1.70;;;;;;;;;;5072730;28;20294;-57
2022/03/19 13:02:48;;;;;;;2.10;1.60;;;;;;;;;;5072631;28;20298;-58
2022/03/19 13:05:14;;;;;;;3.70;2.00;;;;;;;;;;5072375;28;20282;-58
2022/03/19 13:07:40;;;;;;;2.60;1.60;;;;;;;;;;5072070;28;20324;-59
2022/03/19 13:10:13;;;;;;;4.13;1.67;;;;;;;;;;5072159;28;20305;-58
2022/03/19 13:12:40;;;;;;;3.43;1.60;;;;;;;;;;5072258;28;20206;-57
2022/03/19 13:15:15;;;;;;;3.90;1.70;;;;;;;;;;5071224;28;20203;-57
2022/03/19 13:17:41;;;;;;;1.53;1.37;;;;;;;;;;5072081;28;20283;-57
2022/03/19 13:20:10;;;;;;;2.93;1.70;;;;;;;;;;5071801;28;20208;-58
2022/03/19 13:22:36;;;;;;;2.53;1.33;;;;;;;;;;5071788;28;20224;-58
2022/03/19 13:25:02;;;;;;;3.00;1.70;;;;;;;;;;5071800;28;20240;-58
2022/03/19 13:27:28;;;;;;;3.60;1.43;;;;;;;;;;5072017;28;20702;-58
2022/03/19 13:29:59;;;;;;;1.60;1.30;;;;;;;;;;5071574;28;20196;-58
2022/03/19 13:32:26;;;;;;;3.63;1.33;;;;;;;;;;5071840;28;20213;-58
2022/03/19 13:34:54;;;;;;;2.00;1.20;;;;;;;;;;5071531;28;20254;-58
2022/03/19 13:37:21;;;;;;;2.57;1.53;;;;;;;;;;5071581;28;20616;-58
2022/03/19 13:39:48;;;;;;;2.33;1.40;;;;;;;;;;5071488;28;20204;-58
2022/03/19 13:42:15;;;;;;;1.77;1.17;;;;;;;;;;5071654;28;20206;-58
2022/03/19 13:44:42;;;;;;;3.30;1.40;;;;;;;;;;5071407;28;20282;-58
2022/03/19 13:47:11;;;;;;;2.50;1.30;;;;;;;;;;5071246;28;20266;-58
2022/03/19 13:49:38;;;;;;;3.10;1.30;;;;;;;;;;5071378;28;20200;-59
2022/03/19 13:52:05;;;;;;;5.40;1.50;;;;;;;;;;5071018;28;20210;-58
2022/03/19 13:54:44;;;;;;;2.07;1.30;;;;;;;;;;5071308;28;20623;-59
2022/03/19 13:57:12;;;;;;;2.07;1.57;;;;;;;;;;5071337;28;20199;-59
2022/03/19 13:59:38;;;;;;;2.70;1.47;;;;;;;;;;5071391;28;20195;-58
2022/03/19 14:02:04;;;;;;;3.10;1.40;;;;;;;;;;5071233;28;20199;-58
2022/03/19 14:04:34;;;;;;;1.90;1.30;;;;;;;;;;5071322;28;20247;-58
2022/03/19 14:07:00;;;;;;;2.07;1.23;;;;;;;;;;5070936;28;20246;-58
2022/03/19 14:09:26;;;;;;;2.37;1.40;;;;;;;;;;5071154;28;20199;-58
2022/03/19 14:11:52;;;;;;;3.27;1.70;;;;;;;;;;5071151;28;20249;-58
2022/03/19 14:14:18;;;;;;;1.30;1.20;;;;;;;;;;5071154;28;20196;-58
2022/03/19 14:16:54;;;;;;;6.50;2.00;;;;;;;;;;5071103;28;20290;-58
2022/03/19 14:19:20;;;;;;;4.53;1.97;;;;;;;;;;5071020;28;20198;-58
2022/03/19 14:21:48;;;;;;;4.23;2.30;;;;;;;;;;5070862;28;20639;-58
2022/03/19 14:24:13;;;;;;;3.17;1.90;;;;;;;;;;5070985;28;20247;-57
2022/03/19 14:26:39;;;;;;;4.27;1.97;;;;;;;;;;5074087;28;20579;-57
2022/03/19 14:29:05;;;;;;;2.13;1.50;;;;;;;;;;5075066;28;20295;-57
2022/03/19 14:31:32;;;;;;;3.17;1.60;;;;;;;;;;5075167;28;20199;-58
2022/03/19 14:33:57;;;;;;;2.87;1.60;;;;;;;;;;5075368;28;20210;-58
2022/03/19 14:36:26;;;;;;;2.03;1.30;;;;;;;;;;5075083;28;20199;-57
2022/03/19 14:38:55;;;;;;;3.57;1.03;;;;;;;;;;5075065;28;20200;-58
2022/03/19 14:41:23;;;;;;;1.63;1.00;;;;;;;;;;5075401;28;20213;-57
2022/03/19 14:43:50;;;;;;;2.67;1.57;;;;;;;;;;5075184;28;20199;-57
2022/03/19 14:46:18;;;;;;;2.50;1.57;;;;;;;;;;5075284;28;20246;-57
2022/03/19 14:48:45;;;;;;;3.47;1.10;;;;;;;;;;5075297;28;20253;-59
2022/03/19 14:51:11;;;;;;;1.90;1.27;;;;;;;;;;5074868;28;20199;-58